Time;durP1;ratioP1;P1;durP2;ratioP2;P2;SDS_P1;SDS_P2;PMS_P1;PMS_P2;Temp;Humidity;BMP_temperature;BMP_pressure;BME280_temperature;BME280_humidity;BME280_pressure;Samples;Min_cycle;Max_cycle;Signal;HPM_P1;HPM_P2
2023/06/04 00:00:39;;;;;;;;;;;22.50;48.60;;;;;;5060398;28;19933;-72
2023/06/04 00:03:06;;;;;;;;;;;22.50;48.60;;;;;;5060685;28;20023;-72
2023/06/04 00:05:32;;;;;;;;;;;22.50;48.70;;;;;;5060664;28;20336;-73
2023/06/04 00:07:59;;;;;;;;;;;22.50;48.70;;;;;;5058284;28;19933;-73
2023/06/04 00:10:25;;;;;;;;;;;22.40;48.70;;;;;;5058529;28;19932;-73
2023/06/04 00:12:53;;;;;;;;;;;22.40;48.70;;;;;;5055082;28;19932;-73
2023/06/04 00:15:20;;;;;;;;;;;22.30;48.70;;;;;;5051686;28;19932;-73
2023/06/04 00:17:47;;;;;;;;;;;22.30;48.70;;;;;;5054059;28;19929;-73
2023/06/04 00:20:13;;;;;;;;;;;22.30;48.60;;;;;;5049357;28;19936;-73
2023/06/04 00:22:41;;;;;;;;;;;22.20;48.70;;;;;;5053536;28;20469;-73
2023/06/04 00:25:08;;;;;;;;;;;22.20;48.90;;;;;;5052828;28;20027;-72
2023/06/04 00:27:35;;;;;;;;;;;22.20;48.80;;;;;;5056839;28;20298;-72
2023/06/04 00:30:03;;;;;;;;;;;22.10;48.80;;;;;;5052642;28;19958;-72
2023/06/04 00:32:29;;;;;;;;;;;22.10;48.80;;;;;;5049848;28;19932;-72
2023/06/04 00:34:57;;;;;;;;;;;22.00;48.90;;;;;;5054381;28;20002;-72
2023/06/04 00:37:24;;;;;;;;;;;22.00;49.00;;;;;;5057894;28;20642;-73
2023/06/04 00:39:51;;;;;;;;;;;22.00;49.00;;;;;;5061080;28;20402;-72
2023/06/04 00:42:18;;;;;;;;;;;21.90;49.00;;;;;;5052036;28;19935;-72
2023/06/04 00:44:45;;;;;;;;;;;21.90;48.90;;;;;;5055505;28;19968;-72
2023/06/04 00:47:13;;;;;;;;;;;21.80;48.90;;;;;;5055619;28;20317;-73
2023/06/04 00:49:41;;;;;;;;;;;21.80;48.90;;;;;;5062614;28;21153;-73
2023/06/04 00:52:08;;;;;;;;;;;21.80;48.90;;;;;;5057443;28;20012;-73
2023/06/04 00:54:36;;;;;;;;;;;21.70;48.90;;;;;;5055080;28;20622;-72
2023/06/04 00:57:02;;;;;;;;;;;21.70;49.00;;;;;;5048784;28;19928;-73
2023/06/04 00:59:32;;;;;;;;;;;21.70;48.90;;;;;;5056214;28;20418;-72
2023/06/04 01:02:01;;;;;;;;;;;21.60;48.90;;;;;;5048706;28;19934;-72
2023/06/04 01:04:31;;;;;;;;;;;21.60;48.90;;;;;;5058231;28;19939;-73
2023/06/04 01:06:58;;;;;;;;;;;21.50;48.80;;;;;;5048329;28;20308;-71
2023/06/04 01:09:25;;;;;;;;;;;21.50;48.70;;;;;;5052564;28;20039;-71
2023/06/04 01:11:52;;;;;;;;;;;21.40;48.60;;;;;;5048927;28;19974;-72
2023/06/04 01:14:19;;;;;;;;;;;21.40;48.60;;;;;;5054969;28;20001;-72
2023/06/04 01:16:47;;;;;;;;;;;21.40;48.50;;;;;;5054915;28;20580;-72
2023/06/04 01:19:24;;;;;;;;;;;21.40;48.60;;;;;;5057244;28;19959;-72
2023/06/04 01:21:53;;;;;;;;;;;21.30;48.40;;;;;;5062641;28;19929;-72
2023/06/04 01:24:22;;;;;;;;;;;21.30;48.40;;;;;;5060648;28;20745;-73
2023/06/04 01:26:49;;;;;;;;;;;21.30;48.40;;;;;;5066593;28;19951;-72
2023/06/04 01:29:16;;;;;;;;;;;21.20;48.40;;;;;;5061176;28;20596;-72
2023/06/04 01:31:43;;;;;;;;;;;21.20;48.40;;;;;;5060858;28;19936;-73
2023/06/04 01:34:09;;;;;;;;;;;21.20;48.40;;;;;;5068508;28;19966;-73
2023/06/04 01:36:36;;;;;;;;;;;21.10;48.40;;;;;;5064603;28;20019;-72
2023/06/04 01:39:04;;;;;;;;;;;21.10;48.40;;;;;;5063133;28;20314;-72
2023/06/04 01:41:30;;;;;;;;;;;21.10;48.40;;;;;;5064622;28;20402;-73
2023/06/04 01:43:57;;;;;;;;;;;21.00;48.30;;;;;;5063190;28;19928;-73
2023/06/04 01:46:23;;;;;;;;;;;21.00;48.40;;;;;;5063775;28;19932;-73
2023/06/04 01:48:50;;;;;;;;;;;21.00;48.30;;;;;;5065530;28;20291;-71
2023/06/04 01:51:16;;;;;;;;;;;20.90;48.10;;;;;;5059212;28;19982;-72
2023/06/04 01:53:43;;;;;;;;;;;20.90;48.10;;;;;;5052389;28;19929;-73
2023/06/04 01:56:11;;;;;;;;;;;20.90;48.10;;;;;;5063387;28;20353;-72
2023/06/04 01:58:37;;;;;;;;;;;20.90;48.70;;;;;;5060988;28;19928;-70
2023/06/04 02:01:05;;;;;;;;;;;20.80;48.00;;;;;;5054464;28;20605;-73
2023/06/04 02:03:36;;;;;;;;;;;20.80;47.90;;;;;;5054919;28;20031;-73
2023/06/04 02:06:03;;;;;;;;;;;20.70;47.90;;;;;;5056673;28;19932;-72
2023/06/04 02:08:30;;;;;;;;;;;20.70;47.90;;;;;;5052102;28;20642;-72
2023/06/04 02:10:56;;;;;;;;;;;20.70;47.70;;;;;;5059211;28;19940;-72
2023/06/04 02:13:24;;;;;;;;;;;20.70;47.80;;;;;;5049426;28;20126;-72
2023/06/04 02:15:51;;;;;;;;;;;20.70;47.70;;;;;;5056084;28;20374;-72
2023/06/04 02:18:20;;;;;;;;;;;20.60;47.60;;;;;;5058383;28;19990;-72
2023/06/04 02:20:47;;;;;;;;;;;20.60;48.10;;;;;;5057369;28;20406;-72
2023/06/04 02:23:15;;;;;;;;;;;20.60;47.40;;;;;;5055736;28;19937;-72
2023/06/04 02:25:44;;;;;;;;;;;20.50;47.40;;;;;;5055244;28;19929;-71
2023/06/04 02:28:11;;;;;;;;;;;20.50;47.30;;;;;;5057101;28;20394;-73
2023/06/04 02:30:39;;;;;;;;;;;20.50;47.30;;;;;;5053324;28;19928;-72
2023/06/04 02:33:05;;;;;;;;;;;20.40;47.30;;;;;;5052474;28;20402;-73
2023/06/04 02:35:32;;;;;;;;;;;20.40;47.10;;;;;;5059106;28;19958;-73
2023/06/04 02:37:59;;;;;;;;;;;20.40;47.20;;;;;;5063599;28;19993;-72
2023/06/04 02:40:25;;;;;;;;;;;20.30;47.10;;;;;;5056408;28;19932;-72
2023/06/04 02:42:53;;;;;;;;;;;20.30;47.10;;;;;;5054419;28;20448;-72
2023/06/04 02:45:20;;;;;;;;;;;20.30;47.10;;;;;;5050284;28;19929;-73
2023/06/04 02:47:47;;;;;;;;;;;20.30;47.00;;;;;;5053925;28;20086;-73
2023/06/04 02:50:15;;;;;;;;;;;20.20;46.90;;;;;;5057404;28;19948;-72
2023/06/04 02:52:41;;;;;;;;;;;20.20;47.00;;;;;;5058120;28;19924;-72
2023/06/04 02:55:08;;;;;;;;;;;20.20;47.20;;;;;;5055008;28;19939;-72
2023/06/04 02:57:35;;;;;;;;;;;20.10;47.00;;;;;;5051850;28;19974;-72
2023/06/04 03:00:08;;;;;;;;;;;20.10;47.10;;;;;;5052222;28;19924;-73
2023/06/04 03:02:34;;;;;;;;;;;20.10;47.20;;;;;;5060094;28;19944;-72
2023/06/04 03:05:02;;;;;;;;;;;20.10;47.20;;;;;;5065105;28;20010;-72
2023/06/04 03:07:28;;;;;;;;;;;20.00;47.30;;;;;;5051031;28;19933;-72
2023/06/04 03:09:56;;;;;;;;;;;20.00;47.20;;;;;;5056018;28;20472;-72
2023/06/04 03:12:22;;;;;;;;;;;20.00;47.30;;;;;;5055368;28;19925;-72
2023/06/04 03:14:49;;;;;;;;;;;19.90;47.30;;;;;;5056359;28;20326;-71
2023/06/04 03:17:15;;;;;;;;;;;19.90;47.20;;;;;;5051445;28;19928;-72
2023/06/04 03:19:42;;;;;;;;;;;19.90;47.40;;;;;;5057300;28;19932;-72
2023/06/04 03:22:10;;;;;;;;;;;19.90;47.60;;;;;;5056537;28;19977;-72
2023/06/04 03:24:38;;;;;;;;;;;19.80;47.70;;;;;;5058940;28;19991;-72
2023/06/04 03:27:05;;;;;;;;;;;19.80;47.70;;;;;;5063901;28;19993;-73
2023/06/04 03:29:32;;;;;;;;;;;19.80;47.80;;;;;;5066941;28;20870;-72
2023/06/04 03:31:59;;;;;;;;;;;19.80;47.80;;;;;;5056620;28;19924;-73
2023/06/04 03:34:25;;;;;;;;;;;19.70;47.70;;;;;;5065141;28;20332;-72
2023/06/04 03:36:52;;;;;;;;;;;19.70;47.80;;;;;;5063127;28;19933;-72
2023/06/04 03:39:20;;;;;;;;;;;19.70;48.00;;;;;;5064680;28;19927;-71
2023/06/04 03:41:47;;;;;;;;;;;19.60;47.90;;;;;;5063758;28;19982;-71
2023/06/04 03:44:13;;;;;;;;;;;19.60;47.80;;;;;;5062326;28;19924;-72
2023/06/04 03:46:40;;;;;;;;;;;19.60;48.20;;;;;;5064158;28;20001;-73
2023/06/04 03:49:06;;;;;;;;;;;19.50;48.00;;;;;;5061712;28;19924;-72
2023/06/04 03:51:34;;;;;;;;;;;19.50;48.00;;;;;;5051408;28;20359;-72
2023/06/04 03:54:01;;;;;;;;;;;19.50;48.00;;;;;;5057388;28;19932;-72
2023/06/04 03:56:30;;;;;;;;;;;19.50;48.00;;;;;;5055908;28;19928;-73
2023/06/04 03:58:56;;;;;;;;;;;19.50;48.10;;;;;;5063165;28;19986;-72
2023/06/04 04:01:24;;;;;;;;;;;19.40;48.00;;;;;;5058261;28;19932;-72
2023/06/04 04:03:50;;;;;;;;;;;19.40;48.10;;;;;;5059188;28;19929;-73
2023/06/04 04:06:17;;;;;;;;;;;19.40;48.60;;;;;;5053855;28;19929;-72
2023/06/04 04:08:43;;;;;;;;;;;19.30;48.30;;;;;;5055720;28;19939;-71
2023/06/04 04:11:10;;;;;;;;;;;19.30;48.40;;;;;;5058679;28;20356;-72
2023/06/04 04:13:38;;;;;;;;;;;19.30;48.40;;;;;;5046670;28;19925;-73
2023/06/04 04:16:04;;;;;;;;;;;19.30;48.40;;;;;;5060169;28;19981;-72
2023/06/04 04:18:33;;;;;;;;;;;19.30;48.50;;;;;;5061743;28;19932;-73
2023/06/04 04:21:00;;;;;;;;;;;19.20;48.60;;;;;;5053958;28;20398;-72
2023/06/04 04:23:27;;;;;;;;;;;19.20;48.70;;;;;;5056597;28;20401;-72
2023/06/04 04:25:53;;;;;;;;;;;19.20;48.80;;;;;;5054588;28;19929;-72
2023/06/04 04:28:20;;;;;;;;;;;19.20;49.00;;;;;;5055290;28;19979;-72
2023/06/04 04:30:48;;;;;;;;;;;19.20;49.10;;;;;;5054215;28;20568;-71
2023/06/04 04:33:16;;;;;;;;;;;19.10;49.10;;;;;;5050599;28;20251;-72
2023/06/04 04:35:44;;;;;;;;;;;19.10;49.30;;;;;;5054512;28;19932;-72
2023/06/04 04:38:11;;;;;;;;;;;19.10;49.40;;;;;;5059905;28;20041;-73
2023/06/04 04:40:37;;;;;;;;;;;19.00;49.50;;;;;;5056199;28;19924;-71
2023/06/04 04:43:04;;;;;;;;;;;19.10;49.60;;;;;;5050903;28;19924;-72
2023/06/04 04:45:30;;;;;;;;;;;19.00;49.70;;;;;;5054793;28;20345;-72
2023/06/04 04:47:58;;;;;;;;;;;19.00;49.80;;;;;;5053542;28;19994;-72
2023/06/04 04:50:24;;;;;;;;;;;19.00;49.90;;;;;;5050981;28;19935;-72
2023/06/04 04:52:51;;;;;;;;;;;19.00;50.10;;;;;;5057089;28;19978;-72
2023/06/04 04:55:18;;;;;;;;;;;18.90;50.20;;;;;;5056009;28;20520;-72
2023/06/04 04:57:44;;;;;;;;;;;18.90;50.30;;;;;;5055877;28;19937;-72
2023/06/04 05:00:12;;;;;;;;;;;18.90;50.40;;;;;;5058505;28;20029;-72
2023/06/04 05:02:38;;;;;;;;;;;18.90;50.40;;;;;;5050376;28;19939;-72
2023/06/04 05:05:07;;;;;;;;;;;18.90;51.00;;;;;;5059648;28;19933;-72
2023/06/04 05:07:33;;;;;;;;;;;18.80;50.40;;;;;;5063845;28;20002;-73
2023/06/04 05:10:00;;;;;;;;;;;18.80;50.40;;;;;;5057270;28;19950;-72
2023/06/04 05:12:27;;;;;;;;;;;18.80;50.50;;;;;;5047579;28;20298;-72
2023/06/04 05:14:53;;;;;;;;;;;18.80;50.40;;;;;;5050652;28;19932;-72
2023/06/04 05:17:29;;;;;;;;;;;18.80;50.40;;;;;;5056830;28;19924;-73
2023/06/04 05:20:02;;;;;;;;;;;18.80;50.20;;;;;;5048292;28;19925;-72
2023/06/04 05:22:32;;;;;;;;;;;18.80;50.20;;;;;;5051660;28;19959;-71
2023/06/04 05:24:59;;;;;;;;;;;18.70;50.00;;;;;;5051583;28;20040;-73
2023/06/04 05:27:25;;;;;;;;;;;18.70;50.00;;;;;;5052313;28;19924;-73
2023/06/04 05:29:52;;;;;;;;;;;18.70;49.80;;;;;;5052915;28;20441;-72
2023/06/04 05:32:19;;;;;;;;;;;18.70;49.80;;;;;;5045321;28;20225;-71
2023/06/04 05:34:47;;;;;;;;;;;18.70;49.70;;;;;;5052248;28;19928;-72
2023/06/04 05:37:16;;;;;;;;;;;18.70;49.70;;;;;;5051994;28;20009;-72
2023/06/04 05:39:44;;;;;;;;;;;18.70;49.50;;;;;;5051203;28;19960;-72
2023/06/04 05:42:10;;;;;;;;;;;18.70;49.40;;;;;;5055884;28;19932;-71
2023/06/04 05:44:37;;;;;;;;;;;18.70;49.30;;;;;;5053425;28;20002;-72
2023/06/04 05:47:03;;;;;;;;;;;18.70;49.30;;;;;;5049109;28;20746;-72
2023/06/04 05:49:30;;;;;;;;;;;18.70;49.20;;;;;;5059113;28;19932;-72
2023/06/04 05:51:58;;;;;;;;;;;18.60;49.20;;;;;;5046763;28;21222;-72
2023/06/04 05:54:25;;;;;;;;;;;18.70;49.30;;;;;;5052957;28;20315;-71
2023/06/04 05:56:53;;;;;;;;;;;18.70;49.30;;;;;;5050410;28;19982;-72
2023/06/04 05:59:19;;;;;;;;;;;18.70;49.20;;;;;;5053101;28;19978;-72
2023/06/04 06:01:47;;;;;;;;;;;18.70;49.20;;;;;;5047585;28;19994;-72
2023/06/04 06:04:14;;;;;;;;;;;18.70;49.20;;;;;;5058634;28;19924;-71
2023/06/04 06:06:40;;;;;;;;;;;18.70;49.10;;;;;;5066659;28;19978;-72
2023/06/04 06:09:08;;;;;;;;;;;18.70;49.10;;;;;;5056874;28;19929;-72
2023/06/04 06:11:35;;;;;;;;;;;18.70;48.90;;;;;;5060261;28;19932;-72
2023/06/04 06:14:03;;;;;;;;;;;18.70;49.00;;;;;;5050441;28;19933;-73
2023/06/04 06:16:29;;;;;;;;;;;18.70;48.90;;;;;;5052827;28;19925;-72
2023/06/04 06:18:56;;;;;;;;;;;18.70;48.90;;;;;;5057439;28;19933;-72
2023/06/04 06:21:22;;;;;;;;;;;18.70;48.80;;;;;;5053749;28;19933;-72
2023/06/04 06:23:49;;;;;;;;;;;18.70;48.80;;;;;;5053521;28;19935;-72
2023/06/04 06:26:16;;;;;;;;;;;18.70;48.70;;;;;;5048001;28;19950;-73
2023/06/04 06:28:42;;;;;;;;;;;18.70;48.70;;;;;;5058211;28;20299;-72
2023/06/04 06:31:10;;;;;;;;;;;18.70;48.70;;;;;;5057103;28;20677;-71
2023/06/04 06:33:40;;;;;;;;;;;18.70;48.60;;;;;;5059323;28;20486;-72
2023/06/04 06:36:07;;;;;;;;;;;18.70;48.60;;;;;;5056942;28;19935;-73
2023/06/04 06:38:34;;;;;;;;;;;18.70;48.50;;;;;;5054035;28;20669;-73
2023/06/04 06:41:01;;;;;;;;;;;18.70;48.50;;;;;;5047593;28;20838;-72
2023/06/04 06:43:27;;;;;;;;;;;18.70;48.40;;;;;;5053479;28;19928;-72
2023/06/04 06:45:54;;;;;;;;;;;18.80;48.40;;;;;;5056080;28;19954;-73
2023/06/04 06:48:22;;;;;;;;;;;18.80;48.40;;;;;;5052627;28;20003;-71
2023/06/04 06:50:48;;;;;;;;;;;18.80;48.40;;;;;;5057222;28;20197;-71
2023/06/04 06:53:15;;;;;;;;;;;18.80;48.30;;;;;;5053265;28;20493;-73
2023/06/04 06:55:41;;;;;;;;;;;18.80;48.30;;;;;;5052498;28;19929;-73
2023/06/04 06:58:08;;;;;;;;;;;18.80;48.20;;;;;;5059757;28;19982;-72
2023/06/04 07:00:34;;;;;;;;;;;18.80;48.20;;;;;;5058543;28;20737;-73
2023/06/04 07:03:01;;;;;;;;;;;18.80;48.10;;;;;;5052557;28;19929;-72
2023/06/04 07:05:29;;;;;;;;;;;18.80;48.10;;;;;;5051832;28;19932;-73
2023/06/04 07:07:57;;;;;;;;;;;18.80;48.10;;;;;;5051009;28;19936;-72
2023/06/04 07:10:24;;;;;;;;;;;18.80;48.20;;;;;;5050919;28;19932;-72
2023/06/04 07:12:50;;;;;;;;;;;18.80;48.20;;;;;;5055111;28;19936;-72
2023/06/04 07:15:18;;;;;;;;;;;18.90;48.20;;;;;;5057794;28;19935;-72
2023/06/04 07:17:45;;;;;;;;;;;18.90;48.20;;;;;;5062669;28;19929;-72
2023/06/04 07:20:11;;;;;;;;;;;18.90;48.20;;;;;;5067388;28;19936;-72
2023/06/04 07:22:39;;;;;;;;;;;18.90;48.20;;;;;;5052732;28;20732;-71
2023/06/04 07:25:06;;;;;;;;;;;18.90;48.30;;;;;;5062042;28;19929;-72
2023/06/04 07:27:34;;;;;;;;;;;18.90;48.30;;;;;;5051579;28;19937;-72
2023/06/04 07:30:01;;;;;;;;;;;19.00;48.30;;;;;;5053900;28;19990;-72
2023/06/04 07:32:27;;;;;;;;;;;19.00;48.30;;;;;;5051295;28;19997;-73
2023/06/04 07:34:54;;;;;;;;;;;19.00;48.30;;;;;;5058237;28;20501;-72
2023/06/04 07:37:20;;;;;;;;;;;19.00;48.40;;;;;;5055794;28;19950;-73
2023/06/04 07:39:48;;;;;;;;;;;19.00;48.40;;;;;;5058578;28;19982;-72
2023/06/04 07:42:15;;;;;;;;;;;19.00;48.40;;;;;;5050052;28;19936;-73
2023/06/04 07:44:41;;;;;;;;;;;19.10;48.60;;;;;;5055188;28;19935;-73
2023/06/04 07:47:08;;;;;;;;;;;19.10;48.60;;;;;;5056417;28;19986;-71
2023/06/04 07:49:34;;;;;;;;;;;19.10;48.60;;;;;;5072792;28;19928;-72
2023/06/04 07:52:01;;;;;;;;;;;19.10;48.50;;;;;;5062122;28;20396;-71
2023/06/04 07:54:28;;;;;;;;;;;19.10;48.50;;;;;;5050686;28;20056;-71
2023/06/04 07:56:57;;;;;;;;;;;19.10;48.40;;;;;;5057810;28;19935;-72
2023/06/04 07:59:23;;;;;;;;;;;19.20;48.40;;;;;;5053417;28;19932;-71
2023/06/04 08:01:50;;;;;;;;;;;19.20;48.50;;;;;;5051680;28;19929;-72
2023/06/04 08:04:17;;;;;;;;;;;19.20;48.40;;;;;;5057555;28;19932;-72
2023/06/04 08:06:43;;;;;;;;;;;19.20;48.50;;;;;;5062812;28;19928;-72
2023/06/04 08:09:11;;;;;;;;;;;19.30;48.60;;;;;;5062896;28;20436;-71
2023/06/04 08:11:38;;;;;;;;;;;19.30;48.60;;;;;;5065763;28;20011;-73
2023/06/04 08:14:06;;;;;;;;;;;19.30;48.60;;;;;;5061203;28;19928;-72
2023/06/04 08:16:32;;;;;;;;;;;19.30;48.60;;;;;;5062943;28;20559;-73
2023/06/04 08:18:59;;;;;;;;;;;19.40;48.50;;;;;;5060577;28;20002;-71
2023/06/04 08:21:26;;;;;;;;;;;19.40;48.50;;;;;;5067570;28;19924;-73
2023/06/04 08:23:52;;;;;;;;;;;19.40;48.90;;;;;;5063365;28;19973;-72
2023/06/04 08:26:19;;;;;;;;;;;19.40;48.60;;;;;;5062864;28;21010;-72
2023/06/04 08:28:45;;;;;;;;;;;19.50;48.70;;;;;;5064635;28;19993;-72
2023/06/04 08:31:13;;;;;;;;;;;19.50;48.60;;;;;;5062846;28;19973;-72
2023/06/04 08:33:40;;;;;;;;;;;19.50;49.20;;;;;;5063947;28;19936;-72
2023/06/04 08:36:06;;;;;;;;;;;19.50;48.70;;;;;;5062773;28;19974;-73
2023/06/04 08:38:33;;;;;;;;;;;19.60;48.70;;;;;;5065778;28;19936;-73
2023/06/04 08:41:09;;;;;;;;;;;19.60;48.60;;;;;;5062216;28;19982;-71
2023/06/04 08:43:37;;;;;;;;;;;19.70;48.70;;;;;;5057196;28;19924;-72
2023/06/04 08:46:08;;;;;;;;;;;19.70;48.80;;;;;;5061649;28;19936;-73
2023/06/04 08:48:36;;;;;;;;;;;19.70;48.80;;;;;;5066610;28;19939;-72
2023/06/04 08:51:07;;;;;;;;;;;19.80;48.90;;;;;;5064708;28;20413;-72
2023/06/04 08:53:33;;;;;;;;;;;19.80;48.80;;;;;;5056287;28;20879;-72
2023/06/04 08:56:00;;;;;;;;;;;19.80;48.90;;;;;;5053704;28;19966;-72
2023/06/04 08:58:27;;;;;;;;;;;19.80;49.00;;;;;;5054717;28;19947;-72
2023/06/04 09:00:53;;;;;;;;;;;19.90;48.90;;;;;;5051885;28;19989;-72
2023/06/04 09:03:20;;;;;;;;;;;19.90;49.20;;;;;;5049893;28;19936;-72
2023/06/04 09:05:49;;;;;;;;;;;20.00;49.20;;;;;;5059948;28;20022;-73
2023/06/04 09:08:17;;;;;;;;;;;20.00;49.20;;;;;;5057530;28;19929;-72
2023/06/04 09:10:44;;;;;;;;;;;20.10;49.30;;;;;;5055174;28;19936;-73
2023/06/04 09:13:11;;;;;;;;;;;20.20;49.30;;;;;;5054422;28;19933;-73
2023/06/04 09:15:38;;;;;;;;;;;20.20;49.30;;;;;;5051959;28;20287;-72
2023/06/04 09:18:05;;;;;;;;;;;20.20;49.00;;;;;;5060087;28;19928;-73
2023/06/04 09:20:32;;;;;;;;;;;20.20;49.00;;;;;;5048697;28;19975;-73
2023/06/04 09:23:00;;;;;;;;;;;20.30;49.20;;;;;;5055348;28;19928;-73
2023/06/04 09:25:27;;;;;;;;;;;20.40;48.90;;;;;;5050979;28;19932;-72
2023/06/04 09:27:55;;;;;;;;;;;20.40;48.90;;;;;;5058763;28;20002;-73
2023/06/04 09:30:21;;;;;;;;;;;20.40;49.10;;;;;;5049959;28;19928;-73
2023/06/04 09:32:48;;;;;;;;;;;20.40;48.90;;;;;;5054416;28;20534;-73
2023/06/04 09:35:15;;;;;;;;;;;20.50;48.90;;;;;;5054556;28;19982;-72
2023/06/04 09:37:42;;;;;;;;;;;20.50;48.80;;;;;;5052814;28;19937;-73
2023/06/04 09:40:10;;;;;;;;;;;20.60;48.70;;;;;;5058804;28;20410;-72
2023/06/04 09:42:44;;;;;;;;;;;20.60;48.60;;;;;;5055820;28;20236;-72
2023/06/04 09:45:11;;;;;;;;;;;20.70;48.40;;;;;;5060055;28;20449;-72
2023/06/04 09:47:42;;;;;;;;;;;20.80;48.50;;;;;;5054073;28;20713;-73
2023/06/04 09:50:09;;;;;;;;;;;20.80;48.50;;;;;;5054758;28;19938;-72
2023/06/04 09:52:36;;;;;;;;;;;20.90;48.40;;;;;;5057274;28;19982;-73
2023/06/04 09:55:02;;;;;;;;;;;21.00;48.30;;;;;;5056503;28;19967;-73
2023/06/04 09:57:30;;;;;;;;;;;21.00;48.30;;;;;;5059204;28;20670;-73
2023/06/04 09:59:57;;;;;;;;;;;21.10;47.90;;;;;;5056314;28;20399;-73
2023/06/04 10:02:25;;;;;;;;;;;21.20;47.60;;;;;;5051599;28;19936;-73
2023/06/04 10:04:54;;;;;;;;;;;21.30;47.10;;;;;;5053767;28;19933;-73
2023/06/04 10:07:21;;;;;;;;;;;21.30;47.10;;;;;;5048691;28;19932;-72
2023/06/04 10:09:48;;;;;;;;;;;21.40;46.80;;;;;;5057018;28;20385;-73
2023/06/04 10:12:16;;;;;;;;;;;21.40;46.80;;;;;;5055259;28;19929;-72
2023/06/04 10:14:46;;;;;;;;;;;21.50;47.10;;;;;;5049660;28;20454;-73
2023/06/04 10:17:13;;;;;;;;;;;21.60;46.50;;;;;;5057129;28;20036;-72
2023/06/04 10:19:43;;;;;;;;;;;21.70;46.40;;;;;;5054913;28;19936;-73
2023/06/04 10:22:11;;;;;;;;;;;21.70;46.10;;;;;;5052437;28;19937;-72
2023/06/04 10:24:37;;;;;;;;;;;21.80;45.80;;;;;;5054899;28;19929;-73
2023/06/04 10:27:10;;;;;;;;;;;21.90;45.60;;;;;;5049699;28;20714;-73
2023/06/04 10:29:36;;;;;;;;;;;22.00;45.50;;;;;;5054922;28;19933;-73
2023/06/04 10:32:05;;;;;;;;;;;22.00;45.20;;;;;;5054719;28;19929;-73
2023/06/04 10:34:31;;;;;;;;;;;22.10;44.90;;;;;;5053851;28;19924;-73
2023/06/04 10:36:58;;;;;;;;;;;22.10;44.10;;;;;;5061867;28;20146;-73
2023/06/04 10:39:28;;;;;;;;;;;22.20;43.30;;;;;;5060663;28;19936;-73
2023/06/04 10:41:58;;;;;;;;;;;22.30;43.40;;;;;;5056060;28;20210;-72
2023/06/04 10:44:25;;;;;;;;;;;22.30;43.80;;;;;;5057747;28;19958;-73
2023/06/04 10:46:51;;;;;;;;;;;22.40;44.00;;;;;;5053393;28;19959;-73
2023/06/04 10:49:28;;;;;;;;;;;22.50;43.90;;;;;;5054595;28;19932;-73
2023/06/04 10:51:56;;;;;;;;;;;22.50;43.80;;;;;;5060652;28;20047;-73
2023/06/04 10:54:23;;;;;;;;;;;22.60;43.80;;;;;;5062682;28;19935;-73
2023/06/04 10:56:50;;;;;;;;;;;22.70;43.50;;;;;;5059089;28;19935;-74
2023/06/04 10:59:17;;;;;;;;;;;22.80;43.30;;;;;;5051864;28;20011;-73
2023/06/04 11:01:44;;;;;;;;;;;22.80;42.80;;;;;;5053352;28;19952;-72
2023/06/04 11:04:18;;;;;;;;;;;22.90;42.40;;;;;;5049418;28;19933;-74
2023/06/04 11:06:46;;;;;;;;;;;22.90;42.10;;;;;;5058899;28;19932;-73
2023/06/04 11:09:16;;;;;;;;;;;23.00;42.30;;;;;;5053443;28;19935;-73
2023/06/04 11:11:42;;;;;;;;;;;23.10;43.00;;;;;;5059261;28;19928;-73
2023/06/04 11:14:10;;;;;;;;;;;23.10;42.20;;;;;;5048797;28;19935;-73
2023/06/04 11:16:36;;;;;;;;;;;23.20;42.10;;;;;;5053913;28;20025;-73
2023/06/04 11:19:03;;;;;;;;;;;23.30;41.80;;;;;;5057940;28;19929;-73
2023/06/04 11:21:29;;;;;;;;;;;23.30;41.70;;;;;;5050856;28;19925;-73
2023/06/04 11:23:58;;;;;;;;;;;23.40;41.20;;;;;;5049548;28;19936;-74
2023/06/04 11:26:30;;;;;;;;;;;23.50;41.20;;;;;;5054092;28;20445;-74
2023/06/04 11:28:56;;;;;;;;;;;23.50;41.30;;;;;;5058610;28;20460;-74
2023/06/04 11:31:23;;;;;;;;;;;23.60;40.80;;;;;;5053710;28;19937;-73
2023/06/04 11:33:49;;;;;;;;;;;23.60;40.70;;;;;;5055912;28;19928;-73
2023/06/04 11:36:26;;;;;;;;;;;23.70;40.50;;;;;;5055155;28;20373;-74
2023/06/04 11:38:58;;;;;;;;;;;23.80;40.40;;;;;;5057798;28;19929;-73
2023/06/04 11:41:25;;;;;;;;;;;23.80;40.30;;;;;;5054259;28;19936;-73
2023/06/04 11:43:52;;;;;;;;;;;23.90;39.90;;;;;;5060185;28;20394;-73
2023/06/04 11:46:18;;;;;;;;;;;24.00;40.10;;;;;;5059592;28;19932;-72
2023/06/04 11:48:45;;;;;;;;;;;24.00;40.20;;;;;;5064022;28;19940;-75
2023/06/04 11:51:11;;;;;;;;;;;24.10;40.00;;;;;;5054563;28;20411;-73
2023/06/04 11:53:38;;;;;;;;;;;24.10;39.50;;;;;;5051940;28;19932;-74
2023/06/04 11:56:06;;;;;;;;;;;24.20;39.20;;;;;;5065889;28;19924;-73
2023/06/04 11:58:33;;;;;;;;;;;24.20;39.00;;;;;;5063548;28;19929;-74
2023/06/04 12:01:00;;;;;;;;;;;24.30;39.00;;;;;;5054029;28;19978;-73
2023/06/04 12:03:35;;;;;;;;;;;24.30;39.00;;;;;;5046393;28;19979;-73
2023/06/04 12:06:09;;;;;;;;;;;24.40;39.60;;;;;;5057428;28;19932;-74
2023/06/04 12:08:45;;;;;;;;;;;24.50;39.20;;;;;;5059769;28;19985;-72
2023/06/04 12:11:22;;;;;;;;;;;24.50;38.90;;;;;;5049025;28;19958;-73
2023/06/04 12:13:49;;;;;;;;;;;24.50;38.70;;;;;;5055637;28;19932;-73
2023/06/04 12:16:15;;;;;;;;;;;24.60;38.90;;;;;;5051287;28;19933;-74
2023/06/04 12:18:42;;;;;;;;;;;24.70;38.90;;;;;;5053729;28;20377;-73
2023/06/04 12:21:17;;;;;;;;;;;24.70;38.80;;;;;;5050336;28;20724;-74
2023/06/04 12:23:43;;;;;;;;;;;24.80;39.20;;;;;;5045127;28;20025;-74
2023/06/04 12:26:28;;;;;;;;;;;24.90;39.10;;;;;;5053066;28;19928;-73
2023/06/04 12:29:01;;;;;;;;;;;24.90;39.50;;;;;;5051883;28;20069;-73
2023/06/04 12:31:31;;;;;;;;;;;25.00;39.20;;;;;;5056035;28;19940;-73
2023/06/04 12:33:59;;;;;;;;;;;25.00;39.10;;;;;;5057170;28;19928;-73
2023/06/04 12:36:25;;;;;;;;;;;25.10;39.30;;;;;;5059786;28;19929;-73
2023/06/04 12:38:52;;;;;;;;;;;25.10;39.00;;;;;;5055719;28;19932;-73
2023/06/04 12:41:18;;;;;;;;;;;25.10;38.50;;;;;;5056567;28;20298;-73
2023/06/04 12:43:46;;;;;;;;;;;25.20;38.90;;;;;;5050536;28;20002;-74
2023/06/04 12:46:13;;;;;;;;;;;25.20;38.80;;;;;;5052596;28;20610;-73
2023/06/04 12:48:40;;;;;;;;;;;25.30;39.30;;;;;;5057114;28;20324;-74
2023/06/04 12:51:06;;;;;;;;;;;25.30;38.80;;;;;;5053476;28;20272;-74
2023/06/04 12:53:33;;;;;;;;;;;25.40;38.40;;;;;;5054753;28;19928;-72
2023/06/04 12:56:00;;;;;;;;;;;25.40;38.60;;;;;;5052950;28;19932;-74
2023/06/04 12:58:26;;;;;;;;;;;25.50;38.50;;;;;;5050851;28;19929;-74
2023/06/04 13:00:54;;;;;;;;;;;25.50;38.20;;;;;;5058409;28;20020;-74
2023/06/04 13:03:21;;;;;;;;;;;25.60;38.40;;;;;;5047349;28;19929;-73
2023/06/04 13:05:48;;;;;;;;;;;25.60;38.60;;;;;;5058101;28;19936;-73
2023/06/04 13:08:14;;;;;;;;;;;25.70;38.50;;;;;;5053991;28;19951;-73
2023/06/04 13:10:41;;;;;;;;;;;25.70;39.10;;;;;;5052424;28;19940;-73
2023/06/04 13:13:07;;;;;;;;;;;25.80;38.40;;;;;;5054887;28;19928;-73
2023/06/04 13:15:34;;;;;;;;;;;25.80;38.00;;;;;;5054481;28;20425;-72
2023/06/04 13:18:03;;;;;;;;;;;25.90;38.00;;;;;;5059045;28;20066;-73
2023/06/04 13:20:29;;;;;;;;;;;25.90;37.70;;;;;;5049373;28;19935;-73
2023/06/04 13:22:56;;;;;;;;;;;26.00;37.90;;;;;;5056003;28;19935;-74
2023/06/04 13:25:22;;;;;;;;;;;26.00;38.00;;;;;;5053588;28;19935;-72
2023/06/04 13:27:49;;;;;;;;;;;26.10;37.70;;;;;;5054433;28;20416;-73
2023/06/04 13:30:15;;;;;;;;;;;26.10;37.00;;;;;;5055681;28;19932;-74
2023/06/04 13:32:42;;;;;;;;;;;26.20;37.70;;;;;;5049527;28;19973;-72
2023/06/04 13:35:10;;;;;;;;;;;26.20;37.80;;;;;;5055526;28;20402;-73
2023/06/04 13:37:36;;;;;;;;;;;26.20;37.30;;;;;;5064687;28;19928;-74
2023/06/04 13:40:03;;;;;;;;;;;26.30;37.00;;;;;;5052093;28;19936;-74
2023/06/04 13:42:30;;;;;;;;;;;26.40;37.00;;;;;;5045581;28;19928;-72
2023/06/04 13:44:57;;;;;;;;;;;26.40;37.30;;;;;;5054700;28;19933;-72
2023/06/04 13:47:23;;;;;;;;;;;26.50;37.20;;;;;;5056417;28;19928;-73
2023/06/04 13:49:50;;;;;;;;;;;26.50;37.50;;;;;;5050869;28;20009;-74
2023/06/04 13:52:18;;;;;;;;;;;26.60;36.90;;;;;;5048284;28;19944;-73
2023/06/04 13:54:44;;;;;;;;;;;26.60;36.50;;;;;;5057089;28;19989;-73
2023/06/04 13:57:11;;;;;;;;;;;26.70;36.10;;;;;;5054128;28;20018;-74
2023/06/04 13:59:38;;;;;;;;;;;26.70;35.90;;;;;;5054890;28;19932;-73
2023/06/04 14:02:04;;;;;;;;;;;26.80;36.10;;;;;;5048549;28;19990;-73
2023/06/04 14:04:31;;;;;;;;;;;26.80;35.60;;;;;;5060488;28;19928;-73
2023/06/04 14:06:57;;;;;;;;;;;26.90;36.30;;;;;;5064542;28;19948;-74
2023/06/04 14:09:25;;;;;;;;;;;27.00;36.60;;;;;;5062331;28;19932;-74
2023/06/04 14:11:52;;;;;;;;;;;27.00;36.00;;;;;;5061966;28;19928;-74
2023/06/04 14:14:18;;;;;;;;;;;27.10;35.60;;;;;;5055637;28;19932;-73
2023/06/04 14:16:45;;;;;;;;;;;27.10;35.60;;;;;;5056679;28;19933;-74